createdAt,value
2023-01-29T00:02:19.715Z,18.45
2023-01-29T00:05:29.989Z,18.07
2023-01-29T00:08:37.197Z,18.08
2023-01-29T00:11:41.107Z,18.08
2023-01-29T00:14:44.532Z,18.09
2023-01-29T00:17:47.736Z,17.90
2023-01-29T00:20:54.364Z,18.00
2023-01-29T00:23:57.875Z,17.95
2023-01-29T00:27:01.254Z,17.90
2023-01-29T00:30:04.957Z,18.06
2023-01-29T00:33:10.079Z,18.08
2023-01-29T00:36:15.144Z,18.00
2023-01-29T00:39:18.383Z,17.90
2023-01-29T00:42:21.726Z,17.95
2023-01-29T00:45:24.946Z,17.84
2023-01-29T00:48:28.240Z,17.80
2023-01-29T00:51:31.528Z,17.61
2023-01-29T00:54:37.079Z,17.73
2023-01-29T00:57:40.885Z,17.68
2023-01-29T01:00:44.256Z,17.67
2023-01-29T01:03:47.511Z,17.64
2023-01-29T01:06:50.999Z,17.84
2023-01-29T01:09:54.197Z,17.61
2023-01-29T01:13:01.053Z,17.39
2023-01-29T01:16:10.767Z,17.63
2023-01-29T01:19:16.380Z,17.68
2023-01-29T01:22:19.564Z,17.52
2023-01-29T01:25:24.033Z,17.64
2023-01-29T01:28:27.839Z,17.59
2023-01-29T01:31:31.152Z,17.59
2023-01-29T01:34:36.535Z,17.65
2023-01-29T01:37:39.836Z,17.68
2023-01-29T01:40:46.124Z,17.50
2023-01-29T01:44:02.014Z,17.51
2023-01-29T01:47:05.291Z,17.63
2023-01-29T01:50:19.501Z,17.50
2023-01-29T01:53:27.517Z,17.43
2023-01-29T01:56:34.049Z,17.45
2023-01-29T01:59:38.727Z,17.47
2023-01-29T02:02:44.475Z,17.57
2023-01-29T02:05:48.189Z,17.60
2023-01-29T02:09:01.411Z,17.58
2023-01-29T02:12:07.836Z,17.38
2023-01-29T02:15:11.699Z,17.41
2023-01-29T02:18:18.830Z,17.30
2023-01-29T02:21:26.228Z,17.44
2023-01-29T02:24:54.981Z,17.41
2023-01-29T02:28:25.470Z,17.33
2023-01-29T02:31:28.609Z,17.31
2023-01-29T02:34:38.063Z,17.29
2023-01-29T02:37:50.504Z,17.23
2023-01-29T02:40:57.136Z,17.30
2023-01-29T02:44:11.114Z,17.30
2023-01-29T02:47:28.148Z,17.30
2023-01-29T02:50:44.547Z,17.21
2023-01-29T02:53:54.973Z,17.15
2023-01-29T02:57:09.884Z,17.08
2023-01-29T03:00:22.999Z,17.25
2023-01-29T03:03:44.857Z,17.10
2023-01-29T03:06:56.091Z,17.05
2023-01-29T03:09:59.615Z,17.12
2023-01-29T03:13:10.642Z,17.05
2023-01-29T03:16:46.549Z,17.13
2023-01-29T03:19:50.392Z,17.10
2023-01-29T03:23:03.375Z,17.12
2023-01-29T03:26:07.418Z,17.03
2023-01-29T03:29:11.088Z,17.22
2023-01-29T03:32:14.802Z,17.14
2023-01-29T03:35:20.926Z,17.10
2023-01-29T03:38:24.199Z,17.10
2023-01-29T03:41:34.273Z,17.21
2023-01-29T03:44:52.797Z,17.10
2023-01-29T03:48:01.851Z,17.11
2023-01-29T03:51:29.180Z,16.98
2023-01-29T03:54:59.592Z,17.04
2023-01-29T03:58:24.439Z,16.92
2023-01-29T04:01:40.423Z,16.99
2023-01-29T04:04:47.422Z,17.03
2023-01-29T04:07:54.751Z,17.04
2023-01-29T04:11:01.535Z,16.92
2023-01-29T04:14:05.159Z,16.68
2023-01-29T04:17:18.927Z,16.96
2023-01-29T04:20:22.530Z,16.89
2023-01-29T04:23:27.585Z,16.80
2023-01-29T04:27:09.277Z,16.86
2023-01-29T04:30:42.203Z,16.81
2023-01-29T04:33:45.115Z,16.82
2023-01-29T04:36:51.311Z,16.94
2023-01-29T04:40:00.833Z,16.81
2023-01-29T04:44:01.041Z,16.91
2023-01-29T04:47:25.473Z,16.67
2023-01-29T04:50:35.889Z,16.83
2023-01-29T04:53:50.496Z,16.79
2023-01-29T04:57:20.212Z,16.76
2023-01-29T05:00:30.868Z,16.77
2023-01-29T05:03:35.104Z,16.73
2023-01-29T05:06:39.177Z,16.72
2023-01-29T05:09:45.757Z,16.66
2023-01-29T05:12:52.504Z,16.81
2023-01-29T05:16:04.355Z,16.72
2023-01-29T05:19:07.519Z,16.70
2023-01-29T05:22:12.147Z,16.54
2023-01-29T05:25:28.426Z,16.65
2023-01-29T05:28:31.699Z,16.64
2023-01-29T05:31:34.906Z,16.60
2023-01-29T05:34:38.231Z,16.61
2023-01-29T05:37:41.477Z,16.75
2023-01-29T05:40:45.156Z,16.55
2023-01-29T05:43:48.333Z,16.63
2023-01-29T05:46:54.089Z,16.74
2023-01-29T05:49:59.571Z,16.68
2023-01-29T05:53:05.683Z,16.73
2023-01-29T05:56:09.202Z,16.88
2023-01-29T05:59:12.507Z,16.69
2023-01-29T06:02:17.161Z,16.78
2023-01-29T06:05:20.495Z,16.81
2023-01-29T06:08:23.768Z,16.83
2023-01-29T06:11:27.022Z,16.75
2023-01-29T06:14:30.226Z,16.81
2023-01-29T06:17:33.443Z,16.67
2023-01-29T06:20:37.389Z,16.70
2023-01-29T06:23:40.938Z,16.76
2023-01-29T06:26:44.192Z,16.82
2023-01-29T06:29:47.455Z,16.83
2023-01-29T06:32:50.666Z,16.75
2023-01-29T06:36:02.395Z,16.64
2023-01-29T06:39:05.744Z,16.75
2023-01-29T06:42:09.502Z,16.73
2023-01-29T06:45:12.748Z,16.69
2023-01-29T06:48:16.004Z,16.75
2023-01-29T06:51:19.272Z,16.81
2023-01-29T06:54:22.521Z,16.82
2023-01-29T06:57:26.178Z,16.73
2023-01-29T07:00:31.297Z,16.62
2023-01-29T07:03:35.114Z,16.65
2023-01-29T07:06:38.587Z,16.67
2023-01-29T07:09:42.900Z,16.80
2023-01-29T07:12:46.168Z,16.81
2023-01-29T07:15:49.473Z,16.83
2023-01-29T07:18:52.986Z,16.64
2023-01-29T07:21:56.262Z,16.82
2023-01-29T07:24:59.544Z,16.71
2023-01-29T07:28:03.704Z,16.79
2023-01-29T07:31:07.459Z,16.77
2023-01-29T07:34:10.615Z,16.85
2023-01-29T07:37:14.027Z,16.92
2023-01-29T07:40:17.526Z,16.79
2023-01-29T07:43:20.945Z,16.92
2023-01-29T07:46:24.187Z,16.77
2023-01-29T07:49:27.484Z,16.72
2023-01-29T07:52:31.743Z,16.85
2023-01-29T07:55:35.341Z,16.61
2023-01-29T07:58:38.770Z,16.53
2023-01-29T08:01:42.009Z,16.41
2023-01-29T08:04:45.157Z,16.48
2023-01-29T08:08:06.036Z,16.53
2023-01-29T08:11:10.123Z,16.72
2023-01-29T08:14:13.456Z,16.79
2023-01-29T08:17:16.989Z,16.70
2023-01-29T08:20:20.640Z,16.48
2023-01-29T08:23:25.323Z,16.30
2023-01-29T08:26:28.842Z,16.26
2023-01-29T08:29:33.091Z,16.26
2023-01-29T08:32:36.373Z,16.28
2023-01-29T08:35:39.710Z,16.56
2023-01-29T08:38:43.091Z,16.51
2023-01-29T08:41:46.390Z,16.49
2023-01-29T08:44:49.568Z,16.63
2023-01-29T08:47:53.402Z,16.54
2023-01-29T08:50:58.939Z,16.38
2023-01-29T08:54:02.133Z,16.15
2023-01-29T08:57:05.336Z,16.12
2023-01-29T09:00:09.671Z,16.18
2023-01-29T09:03:13.012Z,16.24
2023-01-29T09:06:16.191Z,16.14
2023-01-29T09:09:19.411Z,16.18
2023-01-29T09:12:22.590Z,16.01
2023-01-29T09:15:25.910Z,15.90
2023-01-29T09:18:30.101Z,15.82
2023-01-29T09:21:33.301Z,15.75
2023-01-29T09:24:36.651Z,15.59
2023-01-29T09:27:39.858Z,15.69
2023-01-29T09:30:43.112Z,15.68
2023-01-29T09:33:46.387Z,15.65
2023-01-29T09:36:49.517Z,15.53
2023-01-29T09:39:52.799Z,15.82
2023-01-29T09:43:05.779Z,15.76
2023-01-29T09:46:22.128Z,15.70
2023-01-29T09:49:29.039Z,15.59
2023-01-29T09:52:46.296Z,15.46
2023-01-29T09:56:02.450Z,15.53
2023-01-29T09:59:05.669Z,15.61
2023-01-29T10:02:27.312Z,15.70
2023-01-29T10:05:51.983Z,15.73
2023-01-29T10:09:05.148Z,15.57
2023-01-29T10:12:29.884Z,15.77
2023-01-29T10:15:42.071Z,15.71
2023-01-29T10:19:09.128Z,15.60
2023-01-29T10:22:38.400Z,15.56
2023-01-29T10:25:43.229Z,15.59
2023-01-29T10:28:49.141Z,15.73
2023-01-29T10:31:57.525Z,15.79
2023-01-29T10:35:07.246Z,15.82
2023-01-29T10:38:25.670Z,15.76
2023-01-29T10:41:54.839Z,15.93
2023-01-29T10:45:08.980Z,15.79
2023-01-29T10:48:36.335Z,15.75
2023-01-29T10:51:49.001Z,15.77
2023-01-29T10:54:57.864Z,15.91
2023-01-29T10:58:22.194Z,16.06
2023-01-29T11:01:25.584Z,15.92
2023-01-29T11:04:30.618Z,15.84
2023-01-29T11:07:36.130Z,15.76
2023-01-29T11:10:47.639Z,15.98
2023-01-29T11:13:58.261Z,16.02
2023-01-29T11:17:01.622Z,15.90
2023-01-29T11:20:07.702Z,15.86
2023-01-29T11:23:28.202Z,15.98
2023-01-29T11:26:36.489Z,15.95
2023-01-29T11:29:47.017Z,15.96
2023-01-29T11:33:07.409Z,15.79
2023-01-29T11:36:29.987Z,15.97
2023-01-29T11:39:33.747Z,16.03
2023-01-29T11:42:36.984Z,16.00
2023-01-29T11:45:41.787Z,15.93
2023-01-29T11:48:45.937Z,15.95
2023-01-29T11:51:53.938Z,15.98
2023-01-29T11:55:03.971Z,15.98
2023-01-29T11:58:35.949Z,16.24
2023-01-29T12:01:41.400Z,16.07
2023-01-29T12:04:45.921Z,16.10
2023-01-29T12:07:51.325Z,16.15
2023-01-29T12:11:08.749Z,16.27
2023-01-29T12:14:31.706Z,16.05
2023-01-29T12:17:38.843Z,16.02
2023-01-29T12:20:49.334Z,15.93
2023-01-29T12:24:14.588Z,16.25
2023-01-29T12:27:29.485Z,15.99
2023-01-29T12:31:09.394Z,16.19
2023-01-29T12:34:29.492Z,16.37
2023-01-29T12:37:41.586Z,16.39
2023-01-29T12:40:53.724Z,16.28
2023-01-29T12:44:18.056Z,16.43
2023-01-29T12:47:28.942Z,16.39
2023-01-29T12:50:40.725Z,16.33
2023-01-29T12:54:06.561Z,16.21
2023-01-29T12:57:26.558Z,16.15
2023-01-29T13:00:33.571Z,16.16
2023-01-29T13:03:46.106Z,16.05
2023-01-29T13:06:52.499Z,16.15
2023-01-29T13:10:00.820Z,16.15
2023-01-29T13:13:08.316Z,16.30
2023-01-29T13:16:14.001Z,16.32
2023-01-29T13:19:29.894Z,16.36
2023-01-29T13:22:37.132Z,16.36
2023-01-29T13:25:40.588Z,16.39
2023-01-29T13:28:46.025Z,16.14
2023-01-29T13:31:49.422Z,16.34
2023-01-29T13:34:55.851Z,16.42
2023-01-29T13:37:59.104Z,16.55
2023-01-29T13:41:04.604Z,16.48
2023-01-29T13:44:17.297Z,16.62
2023-01-29T13:47:30.626Z,16.42
2023-01-29T13:50:42.317Z,16.57
2023-01-29T13:53:56.427Z,16.61
2023-01-29T13:57:03.001Z,16.62
2023-01-29T14:00:08.359Z,16.47
2023-01-29T14:03:11.703Z,16.52
2023-01-29T14:06:39.221Z,16.65
2023-01-29T14:10:04.572Z,16.74
2023-01-29T14:13:16.978Z,16.89
2023-01-29T14:16:20.171Z,17.05
2023-01-29T14:19:25.450Z,16.97
2023-01-29T14:22:30.142Z,16.99
2023-01-29T14:25:36.610Z,17.07
2023-01-29T14:28:41.263Z,17.09
2023-01-29T14:31:58.873Z,17.03
2023-01-29T14:35:04.685Z,16.98
2023-01-29T14:38:08.501Z,17.16
2023-01-29T14:41:30.596Z,17.17
2023-01-29T14:44:46.360Z,17.34
2023-01-29T14:47:50.168Z,17.22
2023-01-29T14:50:56.305Z,16.95
2023-01-29T14:54:25.576Z,16.93
2023-01-29T14:57:30.510Z,16.68
2023-01-29T15:00:39.490Z,16.77
2023-01-29T15:03:46.864Z,16.88
2023-01-29T15:07:07.112Z,16.92
2023-01-29T15:10:24.531Z,17.19
2023-01-29T15:13:32.145Z,17.21
2023-01-29T15:17:03.326Z,17.34
2023-01-29T15:20:26.383Z,17.03
2023-01-29T15:23:30.642Z,17.18
2023-01-29T15:26:35.514Z,17.32
2023-01-29T15:29:39.743Z,17.21
2023-01-29T15:32:43.300Z,17.04
2023-01-29T15:35:48.351Z,17.35
2023-01-29T15:39:14.025Z,17.47
2023-01-29T15:42:17.262Z,17.47
2023-01-29T15:45:32.476Z,17.18
2023-01-29T15:48:38.672Z,17.34
2023-01-29T15:51:41.956Z,17.39
2023-01-29T15:54:45.393Z,17.28
2023-01-29T15:57:49.424Z,17.18
2023-01-29T16:00:54.078Z,17.34
2023-01-29T16:03:59.527Z,17.30
2023-01-29T16:07:02.778Z,17.46
2023-01-29T16:10:07.440Z,17.57
2023-01-29T16:13:25.262Z,17.40
2023-01-29T16:16:29.354Z,17.16
2023-01-29T16:19:32.741Z,17.14
2023-01-29T16:22:39.132Z,17.09
2023-01-29T16:25:42.486Z,17.17
2023-01-29T16:28:47.650Z,17.46
2023-01-29T16:31:53.229Z,17.44
2023-01-29T16:34:59.112Z,17.26
2023-01-29T16:38:09.000Z,17.04
2023-01-29T16:41:29.012Z,17.20
2023-01-29T16:44:36.422Z,17.12
2023-01-29T16:47:41.047Z,17.11
2023-01-29T16:50:54.648Z,17.05
2023-01-29T16:54:09.722Z,16.94
2023-01-29T16:57:20.917Z,17.00
2023-01-29T17:00:29.433Z,16.94
2023-01-29T17:03:35.538Z,17.17
2023-01-29T17:06:40.648Z,17.23
2023-01-29T17:09:43.917Z,17.22
2023-01-29T17:12:57.763Z,17.27
2023-01-29T17:16:02.914Z,17.41
2023-01-29T17:19:17.889Z,17.39
2023-01-29T17:22:21.073Z,17.31
2023-01-29T17:25:24.367Z,17.03
2023-01-29T17:28:27.778Z,17.01
2023-01-29T17:31:31.113Z,16.94
2023-01-29T17:34:34.352Z,17.14
2023-01-29T17:37:37.690Z,17.20
2023-01-29T17:40:46.665Z,17.02
2023-01-29T17:43:49.863Z,16.99
2023-01-29T17:46:53.509Z,16.98
2023-01-29T17:49:56.745Z,17.05
2023-01-29T17:53:00.530Z,17.27
2023-01-29T17:56:03.740Z,17.30
2023-01-29T17:59:18.314Z,17.45
2023-01-29T18:02:29.042Z,17.68
2023-01-29T18:05:33.161Z,17.42
2023-01-29T18:08:37.968Z,17.47
2023-01-29T18:11:41.773Z,17.64
2023-01-29T18:14:45.112Z,17.37
2023-01-29T18:17:48.413Z,17.16
2023-01-29T18:20:52.130Z,17.13
2023-01-29T18:23:55.376Z,17.14
2023-01-29T18:26:58.596Z,17.10
2023-01-29T18:30:01.861Z,17.02
2023-01-29T18:33:05.112Z,17.16
2023-01-29T18:36:12.004Z,17.15
2023-01-29T18:39:16.454Z,17.00
2023-01-29T18:42:19.638Z,17.32
2023-01-29T18:45:23.139Z,17.21
2023-01-29T18:48:26.759Z,17.43
2023-01-29T18:51:32.721Z,17.47
2023-01-29T18:54:36.010Z,17.67
2023-01-29T18:58:25.992Z,17.54
2023-01-29T19:01:03.306Z,17.63
2023-01-29T19:04:06.600Z,17.73
2023-01-29T19:07:14.386Z,17.70
2023-01-29T19:10:17.714Z,17.67
2023-01-29T19:13:20.862Z,17.43
2023-01-29T19:16:24.301Z,17.51
2023-01-29T19:19:27.969Z,17.44
2023-01-29T19:22:32.135Z,17.62
2023-01-29T19:25:38.451Z,17.77
2023-01-29T19:28:42.416Z,17.71
2023-01-29T19:31:45.667Z,17.59
2023-01-29T19:34:48.910Z,17.67
2023-01-29T19:37:52.178Z,17.84
2023-01-29T19:40:55.735Z,17.94
2023-01-29T19:43:59.122Z,17.97
2023-01-29T19:47:02.438Z,17.63
2023-01-29T19:50:06.665Z,17.56
2023-01-29T19:53:10.042Z,17.34
2023-01-29T19:56:16.108Z,17.34
2023-01-29T19:59:19.352Z,17.40
2023-01-29T20:02:22.571Z,17.57
2023-01-29T20:05:25.865Z,17.45
2023-01-29T20:08:29.065Z,17.53
2023-01-29T20:11:32.686Z,17.72
2023-01-29T20:14:37.968Z,17.73
2023-01-29T20:17:41.373Z,17.93
2023-01-29T20:20:51.118Z,17.84
2023-01-29T20:23:54.788Z,17.87
2023-01-29T20:26:58.225Z,17.76
2023-01-29T20:30:01.454Z,17.82
2023-01-29T20:33:05.417Z,17.80
2023-01-29T20:36:10.778Z,17.75
2023-01-29T20:39:14.041Z,17.59
2023-01-29T20:42:18.484Z,17.88
2023-01-29T20:45:22.420Z,18.28
2023-01-29T20:48:25.665Z,17.96
2023-01-29T20:51:31.270Z,18.11
2023-01-29T20:54:34.481Z,18.00
2023-01-29T20:57:38.219Z,18.03
2023-01-29T21:00:41.527Z,18.14
2023-01-29T21:03:45.400Z,18.12
2023-01-29T21:06:48.632Z,18.25
2023-01-29T21:09:51.873Z,18.38
2023-01-29T21:12:55.134Z,18.16
2023-01-29T21:15:58.599Z,17.92
2023-01-29T21:19:01.899Z,18.21
2023-01-29T21:22:05.115Z,18.06
2023-01-29T21:25:09.010Z,18.60
2023-01-29T21:28:12.820Z,18.23
2023-01-29T21:31:16.573Z,18.30
2023-01-29T21:34:19.828Z,18.12
2023-01-29T21:37:24.308Z,18.12
2023-01-29T21:40:27.817Z,18.16
2023-01-29T21:43:31.404Z,18.06
2023-01-29T21:46:34.563Z,17.99
2023-01-29T21:49:40.205Z,17.92
2023-01-29T21:52:43.488Z,17.95
2023-01-29T21:55:47.342Z,18.01
2023-01-29T21:58:50.783Z,18.20
2023-01-29T22:01:54.354Z,18.26
2023-01-29T22:05:08.787Z,18.07
2023-01-29T22:08:20.642Z,18.09
2023-01-29T22:11:24.143Z,17.81
2023-01-29T22:14:27.344Z,17.50
2023-01-29T22:17:31.113Z,17.53
2023-01-29T22:20:34.331Z,17.65
2023-01-29T22:23:40.105Z,17.64
2023-01-29T22:26:43.320Z,17.70
2023-01-29T22:29:46.499Z,17.57
2023-01-29T22:32:50.309Z,17.54
2023-01-29T22:35:58.042Z,17.59
2023-01-29T22:39:01.779Z,17.53
2023-01-29T22:42:05.045Z,17.49
2023-01-29T22:45:09.131Z,17.48
2023-01-29T22:48:12.571Z,17.54
2023-01-29T22:51:15.962Z,17.96
2023-01-29T22:54:19.131Z,18.05
2023-01-29T22:57:22.422Z,17.94
2023-01-29T23:00:26.193Z,17.88
2023-01-29T23:03:29.542Z,17.89
2023-01-29T23:06:33.509Z,17.78
2023-01-29T23:09:36.815Z,17.93
2023-01-29T23:12:40.095Z,17.83
2023-01-29T23:15:43.526Z,17.92
2023-01-29T23:18:53.924Z,17.90
2023-01-29T23:21:57.187Z,18.13
2023-01-29T23:25:00.452Z,17.94
2023-01-29T23:28:03.681Z,17.68
2023-01-29T23:31:07.041Z,17.34
2023-01-29T23:34:10.398Z,17.49
2023-01-29T23:37:13.794Z,17.37
2023-01-29T23:40:17.694Z,17.25
2023-01-29T23:43:21.460Z,17.41
2023-01-29T23:46:24.740Z,17.32
2023-01-29T23:49:28.001Z,17.37
2023-01-29T23:52:31.555Z,17.47
2023-01-29T23:55:34.859Z,17.39
2023-01-29T23:58:38.139Z,17.43
